Time;durP1;ratioP1;P1;durP2;ratioP2;P2;SDS_P1;SDS_P2;PMS_P1;PMS_P2;Temp;Humidity;BMP_temperature;BMP_pressure;BME280_temperature;BME280_humidity;BME280_pressure;Samples;Min_cycle;Max_cycle;Signal;HPM_P1;HPM_P2
2022/05/04 00:00:17;;;;;;;;;32.75;29.50;;;;;15.69;53.33;101307.59;5056643;28;45383;-87
2022/05/04 00:02:43;;;;;;;;;28.75;27.25;;;;;15.41;53.51;101246.00;5056328;28;45361;-84
2022/05/04 00:05:09;;;;;;;;;29.50;28.50;;;;;15.48;53.51;101266.47;5055721;28;44914;-91
2022/05/04 00:07:34;;;;;;;;;28.25;27.00;;;;;15.22;53.35;101214.66;5056913;28;45337;-91
2022/05/04 00:10:00;;;;;;;;;28.75;27.50;;;;;15.67;53.93;101301.41;5056478;28;45455;-88
2022/05/04 00:12:26;;;;;;;;;30.00;27.00;;;;;15.22;53.63;101215.56;5056760;28;45295;-84
2022/05/04 00:14:52;;;;;;;;;27.50;26.50;;;;;15.38;53.41;101245.06;5056491;28;45433;-91
2022/05/04 00:17:17;;;;;;;;;29.25;27.75;;;;;15.32;53.52;101239.59;5056815;28;45388;-91
2022/05/04 00:19:43;;;;;;;;;28.50;27.75;;;;;15.66;53.88;101296.94;5056007;28;45445;-89
2022/05/04 00:22:08;;;;;;;;;32.25;29.50;;;;;15.66;53.71;101299.56;5056492;28;45475;-91
2022/05/04 00:24:34;;;;;;;;;28.50;28.25;;;;;15.56;53.80;101284.28;5056476;28;45361;-92
2022/05/04 00:26:59;;;;;;;;;30.75;28.25;;;;;15.07;54.08;101182.53;5056681;28;45556;-91
2022/05/04 00:29:25;;;;;;;;;33.50;27.50;;;;;15.21;54.11;101220.81;5056241;28;46462;-88
2022/05/04 00:31:50;;;;;;;;;30.25;27.50;;;;;15.10;54.15;101191.44;5056197;28;45320;-90
2022/05/04 00:34:16;;;;;;;;;30.75;26.25;;;;;15.16;54.23;101201.28;5056314;28;45387;-85
2022/05/04 00:36:41;;;;;;;;;28.25;26.25;;;;;15.63;54.17;101287.16;5056364;28;44816;-92
2022/05/04 00:39:07;;;;;;;;;31.25;29.25;;;;;15.20;53.95;101219.03;5056144;28;45523;-92
2022/05/04 00:41:32;;;;;;;;;28.00;27.33;;;;;15.59;53.89;101284.38;5056318;28;45453;-90
2022/05/04 00:43:57;;;;;;;;;30.50;28.00;;;;;15.53;53.97;101287.78;5055704;28;45449;-78
2022/05/04 00:46:23;;;;;;;;;35.00;32.50;;;;;15.01;54.31;101211.50;5055580;28;45689;-76
2022/05/04 00:48:49;;;;;;;;;31.25;28.75;;;;;15.43;54.54;101297.28;5055135;28;45393;-79
2022/05/04 00:51:14;;;;;;;;;32.50;30.25;;;;;15.05;54.44;101227.50;5054987;28;45413;-77
2022/05/04 00:53:41;;;;;;;;;33.00;31.00;;;;;14.87;54.64;101192.63;5055228;28;45483;-79
2022/05/04 00:56:08;;;;;;;;;30.75;27.75;;;;;14.96;54.75;101225.53;5055308;28;45283;-76
2022/05/04 00:58:57;;;;;;;;;39.25;33.75;;;;;14.80;54.56;101198.66;5054751;28;46115;-80
2022/05/04 01:01:30;;;;;;;;;36.00;31.75;;;;;15.26;54.92;101290.66;5054695;28;46037;-80
2022/05/04 01:03:57;;;;;;;;;31.75;28.75;;;;;14.88;54.96;101224.47;5055031;28;45382;-87
2022/05/04 01:06:24;;;;;;;;;26.25;25.50;;;;;15.22;55.20;101292.38;5054720;28;45557;-86
2022/05/04 01:08:50;;;;;;;;;32.00;30.00;;;;;14.93;55.30;101244.00;5054968;28;46384;-76
2022/05/04 01:11:17;;;;;;;;;28.75;28.00;;;;;15.23;55.29;101287.97;5054657;28;45824;-75
2022/05/04 01:13:43;;;;;;;;;30.75;28.50;;;;;15.23;55.12;101291.50;5055073;28;45537;-75
2022/05/04 01:16:08;;;;;;;;;36.25;31.75;;;;;14.76;55.27;101197.69;5054790;28;45310;-86
2022/05/04 01:18:34;;;;;;;;;32.75;31.00;;;;;14.68;55.12;101193.97;5054349;28;46232;-77
2022/05/04 01:21:00;;;;;;;;;31.75;29.25;;;;;14.69;55.43;101187.81;5054256;28;45375;-85
2022/05/04 01:23:28;;;;;;;;;40.50;32.75;;;;;14.75;55.06;101211.78;5055142;28;45563;-85
2022/05/04 01:25:53;;;;;;;;;31.75;30.00;;;;;15.17;55.71;101282.50;5054274;28;45617;-89
2022/05/04 01:28:19;;;;;;;;;34.75;31.50;;;;;14.59;55.33;101180.50;5055045;28;46345;-92
2022/05/04 01:30:44;;;;;;;;;33.75;30.00;;;;;14.63;55.04;101193.84;5071138;27;45395;-90
2022/05/04 01:33:10;;;;;;;;;29.75;28.00;;;;;14.72;55.57;101211.69;5055507;28;45401;-87
2022/05/04 01:35:35;;;;;;;;;34.75;30.25;;;;;14.67;55.18;101206.28;5054964;28;45253;-88
2022/05/04 01:38:00;;;;;;;;;32.00;29.00;;;;;14.66;55.33;101200.94;5055329;28;45256;-91
2022/05/04 01:40:26;;;;;;;;;38.25;33.25;;;;;14.74;55.55;101223.22;5055156;28;45473;-89
2022/05/04 01:42:51;;;;;;;;;30.67;29.67;;;;;14.71;55.43;101212.53;5053936;28;45468;-87
2022/05/04 01:45:17;;;;;;;;;33.00;31.00;;;;;14.84;55.63;101241.13;5055094;28;45437;-90
2022/05/04 01:47:48;;;;;;;;;35.50;28.00;;;;;14.63;55.60;101204.44;5054805;28;45493;-92
2022/05/04 01:50:13;;;;;;;;;32.75;29.25;;;;;15.14;55.56;101287.72;5054579;28;45838;-90
2022/05/04 01:52:39;;;;;;;;;30.75;29.50;;;;;14.76;55.56;101217.94;5054041;28;45313;-85
2022/05/04 01:55:06;;;;;;;;;32.50;29.50;;;;;14.40;55.92;101158.84;5055217;28;45374;-90
2022/05/04 01:57:31;;;;;;;;;36.75;33.75;;;;;14.55;55.76;101176.88;5055063;28;46436;-90
2022/05/04 01:59:57;;;;;;;;;42.75;35.75;;;;;14.74;55.55;101212.63;5054990;28;45692;-91
2022/05/04 02:02:23;;;;;;;;;35.25;32.50;;;;;15.10;55.85;101281.47;5054915;28;45244;-90
2022/05/04 02:04:49;;;;;;;;;39.75;33.75;;;;;14.79;55.63;101237.47;5054499;28;45304;-86
2022/05/04 02:07:14;;;;;;;;;33.75;31.25;;;;;14.43;55.50;101169.50;5054517;28;46445;-89
2022/05/04 02:09:43;;;;;;;;;32.50;30.00;;;;;14.68;55.66;101225.72;5053598;28;45407;-90
2022/05/04 02:12:09;;;;;;;;;34.00;31.25;;;;;15.01;55.86;101286.53;5054151;28;44886;-91
2022/05/04 02:14:34;;;;;;;;;36.50;31.75;;;;;14.47;55.69;101196.91;5054702;28;45399;-89
2022/05/04 02:17:01;;;;;;;;;37.75;33.25;;;;;14.58;55.72;101221.00;5054749;28;46071;-88
2022/05/04 02:19:26;;;;;;;;;27.75;27.75;;;;;14.96;55.81;101283.75;5054247;28;45986;-89
2022/05/04 02:21:52;;;;;;;;;30.50;28.50;;;;;14.87;55.83;101270.28;5054559;28;45600;-89
2022/05/04 02:24:18;;;;;;;;;34.75;32.25;;;;;14.45;55.97;101207.44;5054397;28;45504;-91
2022/05/04 02:26:43;;;;;;;;;33.50;30.25;;;;;14.45;55.81;101198.63;5054477;28;45628;-86
2022/05/04 02:29:08;;;;;;;;;28.50;25.75;;;;;14.77;56.14;101267.38;5054432;28;45276;-92
2022/05/04 02:31:34;;;;;;;;;32.50;30.25;;;;;14.93;56.14;101278.41;5054501;28;45241;-85
2022/05/04 02:33:59;;;;;;;;;32.75;30.75;;;;;14.95;56.17;101275.78;5054711;28;45423;-84
2022/05/04 02:39:08;;;;;;;;;36.50;32.00;;;;;14.51;55.97;101195.28;5054349;28;45486;-91
2022/05/04 02:41:34;;;;;;;;;36.33;31.00;;;;;14.96;56.33;101275.81;5054877;28;45239;-91
2022/05/04 02:44:02;;;;;;;;;35.75;31.75;;;;;14.62;55.94;101221.13;5054633;28;45595;-88
2022/05/04 02:46:29;;;;;;;;;43.50;34.25;;;;;14.96;56.21;101274.91;5054140;28;45486;-91
2022/05/04 02:48:54;;;;;;;;;35.50;30.75;;;;;14.52;56.32;101194.41;5054792;28;45459;-86
2022/05/04 02:51:19;;;;;;;;;38.75;33.75;;;;;14.36;56.30;101158.72;5055110;28;45578;-90
2022/05/04 02:53:45;;;;;;;;;37.50;31.25;;;;;14.67;56.25;101222.16;5063635;28;44672;-85
2022/05/04 02:56:13;;;;;;;;;34.00;30.75;;;;;14.96;56.32;101273.16;5060593;28;45583;-88
2022/05/04 02:58:39;;;;;;;;;38.25;32.50;;;;;14.52;56.16;101197.06;5057894;28;45237;-88
2022/05/04 03:04:02;;;;;;;;;40.00;32.00;;;;;14.62;56.49;101209.66;5055984;28;45422;-89
2022/05/04 03:06:28;;;;;;;;;38.00;32.75;;;;;14.57;56.48;101201.59;5053353;28;46093;-91
2022/05/04 03:08:54;;;;;;;;;36.75;32.75;;;;;14.46;56.57;101190.72;5054059;28;45663;-91
2022/05/04 03:14:03;;;;;;;;;38.75;33.50;;;;;14.40;56.40;101179.09;5054060;28;45547;-86
2022/05/04 03:16:28;;;;;;;;;35.00;31.00;;;;;14.43;56.53;101181.81;5053950;28;45547;-92
2022/05/04 03:18:54;;;;;;;;;32.25;29.75;;;;;14.40;56.75;101187.03;5054086;28;45285;-93
2022/05/04 03:21:19;;;;;;;;;37.33;33.00;;;;;14.14;56.60;101133.47;5053725;28;45408;-89
2022/05/04 03:23:44;;;;;;;;;34.50;31.00;;;;;14.39;56.61;101183.50;5054716;28;45535;-92
2022/05/04 03:26:10;;;;;;;;;36.67;33.00;;;;;14.77;56.59;101254.13;5057269;28;47636;-89
2022/05/04 03:28:35;;;;;;;;;37.75;33.00;;;;;14.39;56.94;101183.50;5057273;28;45403;-87
2022/05/04 03:31:00;;;;;;;;;40.50;32.25;;;;;14.76;56.88;101247.06;5057652;28;45637;-90
2022/05/04 03:33:26;;;;;;;;;37.75;32.75;;;;;14.25;56.98;101162.84;5057406;28;45361;-91
2022/05/04 03:35:51;;;;;;;;;34.75;31.00;;;;;14.30;56.83;101180.59;5057021;28;46673;-89
2022/05/04 03:38:17;;;;;;;;;40.00;32.25;;;;;14.30;56.91;101183.25;5058004;28;45593;-93
2022/05/04 03:40:42;;;;;;;;;37.50;32.50;;;;;14.72;57.08;101251.38;5057295;28;45472;-91
2022/05/04 03:43:08;;;;;;;;;36.50;31.50;;;;;14.27;57.27;101174.34;5057393;28;45448;-93
2022/05/04 03:45:33;;;;;;;;;34.25;31.50;;;;;14.16;57.01;101156.44;5056784;28;46018;-85
2022/05/04 03:47:58;;;;;;;;;42.75;36.25;;;;;14.33;57.18;101172.72;5057022;28;45201;-91
2022/05/04 03:50:24;;;;;;;;;47.00;37.00;;;;;14.69;57.17;101243.38;5056964;28;45194;-91
2022/05/04 03:52:49;;;;;;;;;51.33;43.00;;;;;14.17;57.00;101159.97;5057315;28;45216;-90
2022/05/04 03:55:14;;;;;;;;;52.33;43.33;;;;;14.65;56.89;101249.44;5057021;28;45287;-93
2022/05/04 03:57:39;;;;;;;;;54.00;42.75;;;;;14.63;57.27;101251.13;5056854;28;45387;-92
2022/05/04 04:00:06;;;;;;;;;53.00;44.33;;;;;14.15;57.27;101166.97;5057161;28;45367;-90
2022/05/04 04:02:31;;;;;;;;;54.75;41.75;;;;;14.14;57.00;101174.03;5056814;28;45484;-83
2022/05/04 04:04:56;;;;;;;;;49.00;41.00;;;;;14.11;57.20;101166.00;5056242;28;45513;-90
2022/05/04 04:07:21;;;;;;;;;54.00;44.00;;;;;14.07;57.17;101163.22;5055472;28;45485;-91
2022/05/04 04:09:47;;;;;;;;;47.00;39.00;;;;;14.10;57.33;101171.25;5057161;28;45462;-93
2022/05/04 04:12:12;;;;;;;;;50.67;41.67;;;;;14.00;57.46;101153.34;5056676;28;45376;-91
2022/05/04 04:14:40;;;;;;;;;46.75;38.50;;;;;14.52;57.34;101245.56;5056160;28;45327;-89
2022/05/04 04:17:05;;;;;;;;;47.50;38.25;;;;;13.98;57.61;101157.69;5056778;28;45765;-92
2022/05/04 04:19:30;;;;;;;;;43.67;36.00;;;;;14.51;57.43;101250.81;5056590;28;45421;-80
2022/05/04 04:21:55;;;;;;;;;43.33;35.33;;;;;14.50;57.72;101244.63;5055946;28;45504;-82
2022/05/04 04:24:22;;;;;;;;;47.00;37.33;;;;;14.13;57.40;101190.72;5055727;28;46658;-78
2022/05/04 04:26:47;;;;;;;;;40.25;34.75;;;;;14.06;57.41;101170.28;5055314;28;46100;-76
2022/05/04 04:29:12;;;;;;;;;45.25;34.50;;;;;14.48;57.44;101245.44;5055635;28;45248;-76
2022/05/04 04:31:38;;;;;;;;;41.25;35.50;;;;;14.04;57.28;101181.63;5055567;28;45223;-79
2022/05/04 04:34:04;;;;;;;;;40.50;33.25;;;;;14.11;57.45;101199.47;5054495;28;46173;-76
2022/05/04 04:36:30;;;;;;;;;39.75;33.75;;;;;14.02;57.06;101197.47;5055424;28;45431;-76
2022/05/04 04:38:55;;;;;;;;;41.00;32.00;;;;;13.83;57.24;101168.72;5055424;28;45398;-76
2022/05/04 04:41:21;;;;;;;;;41.00;33.75;;;;;13.87;57.22;101187.34;5055408;28;45445;-76
2022/05/04 04:43:46;;;;;;;;;47.00;36.00;;;;;13.73;57.47;101164.94;5055202;28;45453;-75
2022/05/04 04:46:12;;;;;;;;;35.00;30.33;;;;;13.72;57.57;101176.34;5054980;28;45543;-75
2022/05/04 04:48:37;;;;;;;;;39.25;33.50;;;;;13.83;57.63;101193.41;5055036;28;45532;-75
2022/05/04 04:51:03;;;;;;;;;34.00;31.25;;;;;14.22;57.80;101266.75;5055157;28;45421;-83
2022/05/04 04:53:28;;;;;;;;;37.75;32.50;;;;;14.07;57.78;101239.88;5055099;28;45570;-81
2022/05/04 04:55:53;;;;;;;;;39.00;32.50;;;;;14.24;57.70;101273.00;5055184;28;45643;-82
2022/05/04 04:58:19;;;;;;;;;45.50;36.25;;;;;13.87;57.84;101212.88;5055316;28;45502;-76
2022/05/04 05:00:44;;;;;;;;;35.00;31.50;;;;;14.22;57.89;101266.75;5055104;28;45327;-80
2022/05/04 05:03:10;;;;;;;;;9.25;6.25;;;;;14.22;57.86;101268.50;5055004;28;45905;-76
2022/05/04 05:05:41;;;;;;;;;35.75;31.25;;;;;13.88;57.88;101215.56;5054774;28;45425;-79
2022/05/04 05:08:07;;;;;;;;;36.00;30.75;;;;;14.01;58.07;101247.63;5054922;28;45432;-76
2022/05/04 05:10:32;;;;;;;;;35.50;31.25;;;;;13.77;58.12;101198.53;5054738;28;45540;-76
2022/05/04 05:12:58;;;;;;;;;36.00;32.50;;;;;13.71;58.32;101193.06;5054846;28;46061;-79
2022/05/04 05:18:07;;;;;;;;;39.25;33.75;;;;;14.25;58.31;101280.06;5055080;28;45414;-80
2022/05/04 05:20:33;;;;;;;;;38.75;34.50;;;;;14.25;58.07;101282.69;5054422;28;45363;-78
2022/05/04 05:22:59;;;;;;;;;38.25;33.00;;;;;13.97;58.22;101245.75;5054536;28;45460;-83
2022/05/04 05:25:24;;;;;;;;;36.25;32.75;;;;;13.96;58.25;101250.16;5054620;28;45469;-90
2022/05/04 05:27:50;;;;;;;;;41.67;35.00;;;;;13.77;58.35;101205.56;5053464;28;45267;-78
2022/05/04 05:30:15;;;;;;;;;40.50;33.00;;;;;13.86;58.20;101221.66;5054492;28;45519;-76
2022/05/04 05:32:41;;;;;;;;;38.00;33.75;;;;;14.01;58.25;101237.06;5054544;28;46126;-80
2022/05/04 05:35:07;;;;;;;;;35.75;31.00;;;;;13.87;57.84;101223.47;5054111;28;45448;-79
2022/05/04 05:37:32;;;;;;;;;35.25;32.00;;;;;14.33;58.20;101299.66;5054639;28;45294;-78
2022/05/04 05:39:58;;;;;;;;;36.50;33.00;;;;;14.37;58.02;101303.28;5054630;28;45582;-87
2022/05/04 05:42:23;;;;;;;;;32.75;31.00;;;;;13.99;58.08;101212.31;5054156;28;45510;-76
2022/05/04 05:44:49;;;;;;;;;40.00;34.25;;;;;14.19;58.08;101229.66;5054237;28;45441;-83
2022/05/04 05:47:15;;;;;;;;;39.00;33.75;;;;;14.28;57.44;101226.34;5053591;28;45305;-79
2022/05/04 05:49:40;;;;;;;;;36.00;31.75;;;;;14.27;57.45;101221.94;5054330;28;45437;-82
2022/05/04 05:52:08;;;;;;;;;40.75;33.00;;;;;14.61;57.80;101287.25;5054231;28;46743;-78
2022/05/04 05:54:33;;;;;;;;;36.00;32.25;;;;;14.67;57.54;101298.88;5054315;28;45367;-77
2022/05/04 05:56:59;;;;;;;;;41.25;34.25;;;;;14.35;57.49;101234.50;5054754;28;45551;-85
2022/05/04 05:59:24;;;;;;;;;42.00;35.50;;;;;14.67;57.23;101296.22;5054813;28;45217;-84
2022/05/04 06:01:49;;;;;;;;;42.50;36.00;;;;;14.17;57.31;101220.78;5054780;28;45522;-90
2022/05/04 06:04:16;;;;;;;;;42.25;34.00;;;;;14.62;57.49;101302.25;5054389;28;45422;-88
2022/05/04 06:06:41;;;;;;;;;44.00;36.75;;;;;14.27;57.60;101245.72;5053505;28;45343;-87
2022/05/04 06:09:06;;;;;;;;;40.00;34.00;;;;;14.20;57.48;101236.75;5054898;28;45457;-91
2022/05/04 06:11:32;;;;;;;;;39.67;34.00;;;;;14.64;57.29;101308.50;5055084;28;45431;-92
2022/05/04 06:13:57;;;;;;;;;42.00;34.75;;;;;14.64;57.48;101311.16;5054633;28;45425;-86
2022/05/04 06:16:23;;;;;;;;;45.50;36.75;;;;;14.63;57.72;101309.31;5054871;28;45482;-87
2022/05/04 06:18:48;;;;;;;;;41.00;33.75;;;;;14.63;57.50;101307.59;5055126;28;45400;-85
2022/05/04 06:21:13;;;;;;;;;38.00;32.50;;;;;14.64;57.82;101311.16;5054698;28;45982;-89
2022/05/04 06:23:39;;;;;;;;;44.25;35.00;;;;;14.68;57.45;101315.66;5055220;28;45287;-93
2022/05/04 06:26:04;;;;;;;;;41.25;35.50;;;;;14.28;57.43;101237.81;5054908;28;45486;-93
2022/05/04 06:28:29;;;;;;;;;37.75;34.00;;;;;14.44;56.86;101265.59;5055268;28;45299;-90
2022/05/04 06:36:39;;;;;;;;;36.50;31.25;;;;;14.79;57.47;101322.13;5042706;28;45493;-82
2022/05/04 06:39:05;;;;;;;;;44.75;36.00;;;;;14.42;57.12;101249.66;5054953;28;45273;-92
2022/05/04 06:41:30;;;;;;;;;43.25;34.00;;;;;14.40;57.13;101240.81;5054466;28;45364;-89
2022/05/04 06:43:56;;;;;;;;;37.25;33.50;;;;;14.44;56.66;101245.34;5054753;28;45264;-92
2022/05/04 06:46:21;;;;;;;;;39.75;34.25;;;;;14.51;56.86;101258.75;5054322;28;45303;-86
2022/05/04 06:48:46;;;;;;;;;35.75;30.75;;;;;14.99;57.18;101327.94;5054483;28;45545;-76
2022/05/04 06:51:12;;;;;;;;;42.50;33.75;;;;;15.04;56.60;101339.56;5054369;28;46160;-91
2022/05/04 06:53:37;;;;;;;;;40.75;35.00;;;;;14.58;56.75;101264.25;5054200;28;45272;-92
2022/05/04 06:56:03;;;;;;;;;37.00;32.00;;;;;14.84;56.46;101307.28;5054915;28;45714;-92
2022/05/04 06:58:28;;;;;;;;;45.00;34.25;;;;;14.88;56.54;101311.78;5056876;28;45511;-91
2022/05/04 07:00:54;;;;;;;;;36.00;33.00;;;;;15.01;56.29;101333.28;5057621;28;45458;-91
2022/05/04 07:03:21;;;;;;;;;40.25;34.50;;;;;14.38;56.48;101220.47;5057594;28;45540;-86
2022/05/04 07:05:46;;;;;;;;;43.50;34.50;;;;;15.02;56.28;101324.47;5057355;28;45464;-85
2022/05/04 07:08:12;;;;;;;;;37.75;33.00;;;;;14.49;56.24;101240.22;5057865;28;45431;-92
2022/05/04 07:10:37;;;;;;;;;39.75;34.25;;;;;14.96;56.54;101326.09;5057540;28;46152;-92
2022/05/04 07:13:03;;;;;;;;;43.00;36.00;;;;;15.06;56.54;101337.81;5057971;28;45449;-93
2022/05/04 07:15:28;;;;;;;;;24.25;22.25;;;;;14.53;56.39;101243.81;5058292;28;45979;-92
2022/05/04 07:17:53;;;;;;;;;36.75;30.00;;;;;14.49;56.56;101226.97;5057893;28;45550;-90
2022/05/04 07:20:19;;;;;;;;;42.00;35.00;;;;;14.71;56.47;101276.03;5057004;28;45501;-90
2022/05/04 07:22:44;;;;;;;;;45.00;35.00;;;;;15.28;56.24;101355.19;5057621;28;45605;-90
2022/05/04 07:25:10;;;;;;;;;37.25;33.00;;;;;14.88;55.91;101279.16;5057737;28;45280;-91
2022/05/04 07:27:36;;;;;;;;;44.25;36.75;;;;;15.02;56.03;101298.88;5057954;28;45374;-91
2022/05/04 07:30:02;;;;;;;;;44.25;34.50;;;;;15.42;56.10;101359.06;5056121;28;47710;-88
2022/05/04 07:32:28;;;;;;;;;41.00;34.00;;;;;15.47;55.91;101356.53;5057359;28;45553;-93
2022/05/04 07:34:53;;;;;;;;;39.25;33.00;;;;;14.99;55.52;101260.88;5057555;28;45481;-93
2022/05/04 07:37:18;;;;;;;;;43.00;36.33;;;;;15.08;55.30;101277.00;5057994;28;45607;-93
2022/05/04 07:42:27;;;;;;;;;44.50;37.25;;;;;15.25;55.79;101302.13;5063906;28;45761;-90
2022/05/04 07:44:57;;;;;;;;;35.25;31.00;;;;;15.17;55.75;101277.19;5063945;28;45246;-92
2022/05/04 07:47:22;;;;;;;;;39.00;35.50;;;;;15.64;55.15;101346.34;5065751;28;45449;-88
2022/05/04 07:49:48;;;;;;;;;43.00;36.67;;;;;15.28;55.18;101286.31;5069547;28;45350;-86
2022/05/04 07:52:13;;;;;;;;;42.25;35.25;;;;;15.39;55.22;101286.56;5062038;28;45242;-83
2022/05/04 07:54:39;;;;;;;;;43.50;34.75;;;;;15.30;55.37;101274.00;5063163;28;45346;-90
2022/05/04 07:57:04;;;;;;;;;45.25;35.50;;;;;15.42;55.45;101281.34;5064651;28;45326;-88
2022/05/04 07:59:30;;;;;;;;;41.00;35.75;;;;;15.45;55.23;101278.75;5062831;28;45385;-92
2022/05/04 08:04:39;;;;;;;;;43.00;35.00;;;;;15.64;54.93;101280.13;5056734;28;45291;-91
2022/05/04 08:07:04;;;;;;;;;45.25;35.25;;;;;15.83;54.79;101300.88;5056831;28;45424;-89
2022/05/04 08:09:34;;;;;;;;;44.50;36.50;;;;;15.80;54.71;101276.03;5055957;28;45991;-92
2022/05/04 08:11:59;;;;;;;;;42.50;35.50;;;;;15.93;54.21;101294.91;5056789;28;45256;-87
2022/05/04 08:14:25;;;;;;;;;44.50;37.00;;;;;15.82;54.30;101275.22;5056929;28;45205;-93
2022/05/04 08:16:50;;;;;;;;;40.50;34.75;;;;;16.38;54.05;101357.72;5056839;28;45521;-87
2022/05/04 08:19:16;;;;;;;;;47.00;37.00;;;;;16.08;54.23;101288.13;5056510;28;46149;-90
2022/05/04 08:21:41;;;;;;;;;41.00;32.25;;;;;16.59;54.02;101365.22;5056508;28;45437;-93
2022/05/04 08:24:07;;;;;;;;;42.25;33.75;;;;;16.23;53.24;101285.78;5056281;28;45470;-91
2022/05/04 08:26:33;;;;;;;;;40.75;35.50;;;;;16.66;53.14;101348.56;5056567;28;45433;-92
2022/05/04 08:28:58;;;;;;;;;42.00;34.00;;;;;16.39;53.46;101290.53;5056409;28;46383;-90
2022/05/04 08:31:23;;;;;;;;;42.50;35.75;;;;;16.94;53.34;101355.31;5056243;28;45509;-91
2022/05/04 08:33:50;;;;;;;;;45.50;36.50;;;;;16.75;53.38;101298.34;5072203;28;45400;-91
2022/05/04 08:36:16;;;;;;;;;42.00;36.75;;;;;16.71;53.03;101282.28;5056430;28;45382;-86
2022/05/04 08:38:41;;;;;;;;;47.50;37.75;;;;;17.32;53.26;101363.06;5056548;28;45666;-92
2022/05/04 08:41:07;;;;;;;;;38.33;32.33;;;;;17.34;52.82;101374.63;5056320;28;45386;-81
2022/05/04 08:43:33;;;;;;;;;42.75;36.75;;;;;16.91;52.17;101310.13;5056273;28;45463;-87
2022/05/04 08:46:01;;;;;;;;;44.75;34.75;;;;;17.12;52.84;101364.47;5056150;28;45878;-89
2022/05/04 08:48:27;;;;;;;;;44.75;36.25;;;;;16.51;52.73;101272.22;5056086;28;45409;-93
2022/05/04 08:50:54;;;;;;;;;43.25;35.50;;;;;16.58;52.52;101298.84;5055554;28;45857;-92
2022/05/04 08:53:19;;;;;;;;;44.00;33.50;;;;;16.89;52.67;101356.97;5056056;28;45586;-79
2022/05/04 08:55:46;;;;;;;;;39.00;34.50;;;;;16.86;52.41;101362.25;5054951;28;45481;-80
2022/05/04 08:58:12;;;;;;;;;46.50;38.25;;;;;16.42;53.48;101303.88;5054864;28;46507;-77
2022/05/04 09:00:37;;;;;;;;;45.75;36.50;;;;;16.77;52.88;101357.66;5052891;28;45320;-76
2022/05/04 09:03:03;;;;;;;;;43.25;35.25;;;;;16.41;53.24;101306.50;5054697;28;45445;-78
2022/05/04 09:05:29;;;;;;;;;39.25;35.50;;;;;16.30;53.12;101290.34;5054383;28;45491;-79
2022/05/04 09:07:57;;;;;;;;;47.00;38.00;;;;;16.40;53.08;101310.00;5054628;28;45535;-82
2022/05/04 09:10:22;;;;;;;;;46.00;37.50;;;;;16.61;53.00;101365.28;5054630;28;45908;-77
2022/05/04 09:12:50;;;;;;;;;41.67;35.00;;;;;16.15;53.32;101280.31;5055023;28;45456;-78
2022/05/04 09:15:21;;;;;;;;;45.50;36.25;;;;;16.20;53.36;101278.66;5054833;28;45287;-76
2022/05/04 09:18:21;;;;;;;;;44.00;35.75;;;;;16.74;53.38;101357.59;5054760;28;45354;-79
2022/05/04 09:20:55;;;;;;;;;40.50;34.75;;;;;16.89;53.01;101367.59;5031385;28;45893;-82
2022/05/04 09:23:29;;;;;;;;;45.50;36.75;;;;;16.59;52.92;101282.06;5051122;28;45609;-77
2022/05/04 09:25:59;;;;;;;;;40.50;35.50;;;;;16.99;52.64;101323.53;5054617;28;45347;-79
2022/05/04 09:28:26;;;;;;;;;42.75;36.00;;;;;17.29;52.38;101336.47;5054475;28;45731;-78
2022/05/04 09:30:59;;;;;;;;;39.00;34.25;;;;;17.38;52.14;101309.13;5054514;28;45514;-76
2022/05/04 09:33:27;;;;;;;;;38.50;33.00;;;;;17.52;51.40;101294.28;5054684;28;45476;-81
2022/05/04 09:35:53;;;;;;;;;45.75;36.00;;;;;17.45;51.37;101261.41;5054171;28;45421;-77
2022/05/04 09:46:42;;;;;;;;;41.50;34.50;;;;;17.76;50.68;101346.97;5053933;28;45309;-79
2022/05/04 09:49:15;;;;;;;;;36.50;32.75;;;;;17.58;51.13;101326.25;5053718;28;45507;-77
2022/05/04 09:51:48;;;;;;;;;39.25;33.25;;;;;17.21;50.96;101274.31;5069462;28;45859;-77
2022/05/04 09:54:22;;;;;;;;;41.00;32.50;;;;;17.63;50.84;101342.28;5054359;28;45299;-81
2022/05/04 09:56:58;;;;;;;;;35.25;30.50;;;;;17.63;50.77;101339.63;5054498;28;45743;-77
2022/05/04 09:59:26;;;;;;;;;37.50;33.00;;;;;17.69;50.57;101342.41;5053922;28;46288;-77
2022/05/04 10:01:53;;;;;;;;;38.50;32.75;;;;;17.35;50.95;101250.63;5053882;28;45907;-76
2022/05/04 10:04:20;;;;;;;;;41.75;33.00;;;;;17.74;50.13;101272.50;5053555;28;45525;-77
2022/05/04 10:06:48;;;;;;;;;31.50;29.00;;;;;17.81;49.81;101252.19;5053724;28;45451;-75
2022/05/04 10:09:13;;;;;;;;;36.25;32.00;;;;;18.04;49.43;101263.13;5052324;28;48180;-75
2022/05/04 10:11:39;;;;;;;;;40.75;33.25;;;;;18.14;49.51;101256.16;5052349;28;45454;-87
2022/05/04 10:14:10;;;;;;;;;30.75;29.00;;;;;18.64;49.38;101323.25;5053942;28;45567;-76
2022/05/04 10:16:45;;;;;;;;;35.25;32.25;;;;;18.66;48.84;101308.19;5053640;28;45395;-75
2022/05/04 10:19:19;;;;;;;;;36.00;32.50;;;;;18.57;48.72;101284.16;5053311;28;47197;-78
2022/05/04 10:21:48;;;;;;;;;38.75;32.75;;;;;18.53;48.17;101272.56;5053695;28;45728;-76
2022/05/04 10:24:17;;;;;;;;;35.25;32.25;;;;;18.59;47.75;101289.47;5053643;28;45388;-79
2022/05/04 10:26:45;;;;;;;;;34.75;31.50;;;;;18.83;48.00;101339.47;5053546;28;45461;-76
2022/05/04 10:32:28;;;;;;;;;34.25;30.25;;;;;18.46;48.21;101342.56;5052813;28;45453;-83
2022/05/04 10:35:38;;;;;;;;;27.50;27.50;;;;;18.38;48.42;101341.59;5053585;28;45514;-78
2022/05/04 10:38:27;;;;;;;;;27.00;26.00;;;;;17.87;48.17;101241.63;5014412;28;45543;-92
2022/05/04 10:40:56;;;;;;;;;29.25;27.00;;;;;18.72;48.06;101342.94;5031350;28;45659;-94
2022/05/04 10:43:38;;;;;;;;;24.00;22.25;;;;;19.01;46.79;101351.22;5056623;28;46007;-82
2022/05/04 10:46:10;;;;;;;;;24.75;22.50;;;;;19.17;46.18;101351.34;5069373;28;45508;-92
2022/05/04 10:48:35;;;;;;;;;32.50;28.50;;;;;19.20;46.59;101351.38;5053911;28;45550;-93
2022/05/04 10:51:11;;;;;;;;;25.75;25.00;;;;;19.23;46.68;101357.63;5054039;28;46251;-91
2022/05/04 10:53:39;;;;;;;;;28.75;26.50;;;;;18.99;46.23;101286.34;5054127;28;45524;-90
2022/05/04 10:56:12;;;;;;;;;30.50;28.25;;;;;18.94;46.35;101250.78;5054493;28;45369;-90
2022/05/04 10:58:45;;;;;;;;;27.00;26.50;;;;;19.65;46.31;101348.19;5054361;28;45472;-86
2022/05/04 11:01:30;;;;;;;;;27.50;26.75;;;;;19.41;45.82;101282.25;5054330;28;45744;-93
2022/05/04 11:04:15;;;;;;;;;32.25;26.50;;;;;19.89;45.26;101343.91;5053319;28;45287;-87
2022/05/04 11:07:00;;;;;;;;;28.50;26.00;;;;;19.42;45.04;101246.72;5054105;28;45251;-90
2022/05/04 11:09:31;;;;;;;;;29.50;25.00;;;;;19.79;45.08;101284.28;5053954;28;45339;-87
2022/05/04 11:11:59;;;;;;;;;28.00;25.75;;;;;19.85;45.36;101289.63;5054191;28;45375;-89
2022/05/04 11:14:24;;;;;;;;;23.25;23.25;;;;;19.81;44.26;101263.88;5054430;28;45861;-92
2022/05/04 11:16:51;;;;;;;;;29.25;26.50;;;;;19.59;44.43;101222.81;5054200;28;45421;-92
2022/05/04 11:19:18;;;;;;;;;28.00;25.75;;;;;19.90;44.75;101263.91;5053848;28;45276;-90
2022/05/04 11:21:45;;;;;;;;;27.75;26.75;;;;;20.28;44.60;101313.88;5053761;28;45482;-89
2022/05/04 11:24:12;;;;;;;;;30.25;28.75;;;;;20.08;43.66;101282.66;5054018;28;45512;-92
2022/05/04 11:26:41;;;;;;;;;27.25;24.25;;;;;19.94;43.93;101270.13;5054157;28;45354;-92
2022/05/04 11:29:08;;;;;;;;;23.00;22.00;;;;;20.41;43.87;101334.41;5054300;28;45578;-89
2022/05/04 11:31:33;;;;;;;;;29.25;25.00;;;;;19.92;42.84;101234.56;5053682;28;46425;-87
2022/05/04 11:33:58;;;;;;;;;19.00;19.00;;;;;20.25;42.47;101279.16;5054035;28;45444;-91
2022/05/04 11:36:24;;;;;;;;;24.00;21.75;;;;;20.28;42.64;101263.16;5053819;28;45310;-87
2022/05/04 11:38:50;;;;;;;;;25.25;23.50;;;;;20.65;42.03;101304.25;5053844;28;45470;-90
2022/05/04 11:41:16;;;;;;;;;18.75;18.00;;;;;20.68;41.75;101277.50;5053753;28;46196;-93